sensor_id;sensor_type;location;lat;lon;timestamp;P1;durP1;ratioP1;P2;durP2;ratioP2
49592;SDS011;35499;51.482;4.264;2024-02-26T00:02:16;2.80;;;1.38;;
49592;SDS011;35499;51.482;4.264;2024-02-26T00:04:42;5.22;;;1.65;;
49592;SDS011;35499;51.482;4.264;2024-02-26T00:07:07;5.75;;;1.60;;
49592;SDS011;35499;51.482;4.264;2024-02-26T00:09:33;3.50;;;1.23;;
49592;SDS011;35499;51.482;4.264;2024-02-26T00:12:03;6.43;;;1.40;;
49592;SDS011;35499;51.482;4.264;2024-02-26T00:14:30;4.50;;;1.60;;
49592;SDS011;35499;51.482;4.264;2024-02-26T00:16:56;4.75;;;1.67;;
49592;SDS011;35499;51.482;4.264;2024-02-26T00:19:21;2.70;;;1.27;;
49592;SDS011;35499;51.482;4.264;2024-02-26T00:21:46;5.30;;;1.47;;
49592;SDS011;35499;51.482;4.264;2024-02-26T00:24:12;3.30;;;1.30;;
49592;SDS011;35499;51.482;4.264;2024-02-26T00:26:37;3.03;;;1.70;;
49592;SDS011;35499;51.482;4.264;2024-02-26T00:29:03;4.00;;;1.60;;
49592;SDS011;35499;51.482;4.264;2024-02-26T00:31:28;4.40;;;1.20;;
49592;SDS011;35499;51.482;4.264;2024-02-26T00:33:53;4.93;;;1.63;;
49592;SDS011;35499;51.482;4.264;2024-02-26T00:36:19;3.33;;;1.45;;
49592;SDS011;35499;51.482;4.264;2024-02-26T00:38:44;4.00;;;1.33;;
49592;SDS011;35499;51.482;4.264;2024-02-26T00:41:15;2.22;;;0.90;;
49592;SDS011;35499;51.482;4.264;2024-02-26T00:43:41;3.00;;;1.40;;
49592;SDS011;35499;51.482;4.264;2024-02-26T00:46:07;3.60;;;1.35;;
49592;SDS011;35499;51.482;4.264;2024-02-26T00:48:32;3.43;;;1.40;;
49592;SDS011;35499;51.482;4.264;2024-02-26T00:50:58;3.75;;;1.70;;
49592;SDS011;35499;51.482;4.264;2024-02-26T00:53:23;2.92;;;1.70;;
49592;SDS011;35499;51.482;4.264;2024-02-26T00:55:50;3.53;;;1.60;;
49592;SDS011;35499;51.482;4.264;2024-02-26T00:58:15;3.30;;;1.35;;
49592;SDS011;35499;51.482;4.264;2024-02-26T01:00:41;3.28;;;1.30;;
49592;SDS011;35499;51.482;4.264;2024-02-26T01:03:06;4.97;;;1.83;;
49592;SDS011;35499;51.482;4.264;2024-02-26T01:05:32;2.95;;;1.35;;
49592;SDS011;35499;51.482;4.264;2024-02-26T01:07:57;5.35;;;1.33;;
49592;SDS011;35499;51.482;4.264;2024-02-26T01:10:23;1.60;;;0.73;;
49592;SDS011;35499;51.482;4.264;2024-02-26T01:12:48;4.55;;;1.55;;
49592;SDS011;35499;51.482;4.264;2024-02-26T01:15:13;4.80;;;1.52;;
49592;SDS011;35499;51.482;4.264;2024-02-26T01:17:39;3.53;;;1.40;;
49592;SDS011;35499;51.482;4.264;2024-02-26T01:20:04;3.10;;;1.00;;
49592;SDS011;35499;51.482;4.264;2024-02-26T01:22:30;3.72;;;1.48;;
49592;SDS011;35499;51.482;4.264;2024-02-26T01:24:56;3.60;;;2.30;;
49592;SDS011;35499;51.482;4.264;2024-02-26T01:27:21;3.03;;;1.58;;
49592;SDS011;35499;51.482;4.264;2024-02-26T01:29:51;3.47;;;1.48;;
49592;SDS011;35499;51.482;4.264;2024-02-26T01:32:17;4.57;;;1.30;;
49592;SDS011;35499;51.482;4.264;2024-02-26T01:34:43;3.22;;;1.35;;
49592;SDS011;35499;51.482;4.264;2024-02-26T01:37:08;4.13;;;1.48;;
49592;SDS011;35499;51.482;4.264;2024-02-26T01:39:33;3.23;;;1.97;;
49592;SDS011;35499;51.482;4.264;2024-02-26T01:41:59;6.30;;;1.80;;
49592;SDS011;35499;51.482;4.264;2024-02-26T01:44:25;2.78;;;1.13;;
49592;SDS011;35499;51.482;4.264;2024-02-26T01:46:51;2.13;;;1.23;;
49592;SDS011;35499;51.482;4.264;2024-02-26T01:49:18;3.65;;;1.63;;
49592;SDS011;35499;51.482;4.264;2024-02-26T01:51:43;3.10;;;1.67;;
49592;SDS011;35499;51.482;4.264;2024-02-26T01:54:09;4.47;;;2.42;;
49592;SDS011;35499;51.482;4.264;2024-02-26T01:56:35;4.25;;;2.00;;
49592;SDS011;35499;51.482;4.264;2024-02-26T01:59:02;7.72;;;2.42;;
49592;SDS011;35499;51.482;4.264;2024-02-26T02:01:30;3.25;;;1.60;;
49592;SDS011;35499;51.482;4.264;2024-02-26T02:03:57;3.50;;;1.52;;
49592;SDS011;35499;51.482;4.264;2024-02-26T02:06:23;3.75;;;1.83;;
49592;SDS011;35499;51.482;4.264;2024-02-26T02:08:49;2.38;;;1.20;;
49592;SDS011;35499;51.482;4.264;2024-02-26T02:11:14;6.68;;;1.65;;
49592;SDS011;35499;51.482;4.264;2024-02-26T02:13:40;2.85;;;1.60;;
49592;SDS011;35499;51.482;4.264;2024-02-26T02:16:06;3.80;;;1.60;;
49592;SDS011;35499;51.482;4.264;2024-02-26T02:18:32;4.18;;;1.70;;
49592;SDS011;35499;51.482;4.264;2024-02-26T02:20:59;3.72;;;1.88;;
49592;SDS011;35499;51.482;4.264;2024-02-26T02:23:25;3.83;;;1.75;;
49592;SDS011;35499;51.482;4.264;2024-02-26T02:25:50;2.67;;;1.55;;
49592;SDS011;35499;51.482;4.264;2024-02-26T02:28:16;2.70;;;1.25;;
49592;SDS011;35499;51.482;4.264;2024-02-26T02:30:42;2.20;;;1.00;;
49592;SDS011;35499;51.482;4.264;2024-02-26T02:33:07;3.97;;;2.50;;
49592;SDS011;35499;51.482;4.264;2024-02-26T02:35:33;2.70;;;1.40;;
49592;SDS011;35499;51.482;4.264;2024-02-26T02:37:58;2.28;;;1.42;;
49592;SDS011;35499;51.482;4.264;2024-02-26T02:40:24;3.45;;;1.60;;
49592;SDS011;35499;51.482;4.264;2024-02-26T02:42:49;2.43;;;1.57;;
49592;SDS011;35499;51.482;4.264;2024-02-26T02:45:14;2.83;;;1.43;;
49592;SDS011;35499;51.482;4.264;2024-02-26T02:47:40;2.35;;;1.30;;
49592;SDS011;35499;51.482;4.264;2024-02-26T02:50:05;4.00;;;1.88;;
49592;SDS011;35499;51.482;4.264;2024-02-26T02:52:31;3.75;;;1.13;;
49592;SDS011;35499;51.482;4.264;2024-02-26T02:54:56;2.35;;;1.38;;
49592;SDS011;35499;51.482;4.264;2024-02-26T02:57:22;3.70;;;1.97;;
49592;SDS011;35499;51.482;4.264;2024-02-26T02:59:47;4.07;;;1.98;;
49592;SDS011;35499;51.482;4.264;2024-02-26T03:02:12;3.72;;;2.55;;
49592;SDS011;35499;51.482;4.264;2024-02-26T03:04:38;3.67;;;2.22;;
49592;SDS011;35499;51.482;4.264;2024-02-26T03:07:03;2.72;;;1.63;;
49592;SDS011;35499;51.482;4.264;2024-02-26T03:09:29;6.85;;;1.92;;
49592;SDS011;35499;51.482;4.264;2024-02-26T03:11:54;4.07;;;2.10;;
49592;SDS011;35499;51.482;4.264;2024-02-26T03:14:19;3.70;;;1.85;;
49592;SDS011;35499;51.482;4.264;2024-02-26T03:16:45;2.97;;;1.65;;
49592;SDS011;35499;51.482;4.264;2024-02-26T03:19:10;3.30;;;2.33;;
49592;SDS011;35499;51.482;4.264;2024-02-26T03:21:35;5.17;;;2.07;;
49592;SDS011;35499;51.482;4.264;2024-02-26T03:24:01;3.63;;;2.23;;
49592;SDS011;35499;51.482;4.264;2024-02-26T03:26:27;3.55;;;1.83;;
49592;SDS011;35499;51.482;4.264;2024-02-26T03:28:52;4.72;;;2.75;;
49592;SDS011;35499;51.482;4.264;2024-02-26T03:31:18;4.18;;;2.25;;
49592;SDS011;35499;51.482;4.264;2024-02-26T03:33:43;5.00;;;2.63;;
49592;SDS011;35499;51.482;4.264;2024-02-26T03:36:08;4.93;;;2.70;;
49592;SDS011;35499;51.482;4.264;2024-02-26T03:38:34;4.70;;;1.83;;
49592;SDS011;35499;51.482;4.264;2024-02-26T03:40:59;4.25;;;2.03;;
49592;SDS011;35499;51.482;4.264;2024-02-26T03:43:24;5.07;;;3.80;;
49592;SDS011;35499;51.482;4.264;2024-02-26T03:45:50;4.63;;;2.90;;
49592;SDS011;35499;51.482;4.264;2024-02-26T03:48:15;4.95;;;2.17;;
49592;SDS011;35499;51.482;4.264;2024-02-26T03:50:41;3.55;;;2.05;;
49592;SDS011;35499;51.482;4.264;2024-02-26T03:53:06;4.25;;;2.25;;
49592;SDS011;35499;51.482;4.264;2024-02-26T03:55:34;6.75;;;3.05;;
49592;SDS011;35499;51.482;4.264;2024-02-26T03:57:59;7.50;;;2.97;;
49592;SDS011;35499;51.482;4.264;2024-02-26T04:00:24;3.05;;;1.83;;
49592;SDS011;35499;51.482;4.264;2024-02-26T04:02:51;5.43;;;3.30;;
49592;SDS011;35499;51.482;4.264;2024-02-26T04:05:16;2.83;;;1.70;;
49592;SDS011;35499;51.482;4.264;2024-02-26T04:07:42;5.60;;;2.85;;
49592;SDS011;35499;51.482;4.264;2024-02-26T04:10:10;6.25;;;3.22;;
49592;SDS011;35499;51.482;4.264;2024-02-26T04:12:38;4.50;;;1.92;;
49592;SDS011;35499;51.482;4.264;2024-02-26T04:15:10;4.90;;;2.25;;
49592;SDS011;35499;51.482;4.264;2024-02-26T04:17:36;3.50;;;2.00;;
49592;SDS011;35499;51.482;4.264;2024-02-26T04:20:02;6.00;;;2.30;;
49592;SDS011;35499;51.482;4.264;2024-02-26T04:22:28;7.13;;;3.00;;
49592;SDS011;35499;51.482;4.264;2024-02-26T04:24:54;8.23;;;3.67;;
49592;SDS011;35499;51.482;4.264;2024-02-26T04:27:19;2.67;;;1.27;;
49592;SDS011;35499;51.482;4.264;2024-02-26T04:29:44;5.97;;;3.33;;
49592;SDS011;35499;51.482;4.264;2024-02-26T04:32:10;5.65;;;2.45;;
49592;SDS011;35499;51.482;4.264;2024-02-26T04:34:35;5.07;;;2.55;;
49592;SDS011;35499;51.482;4.264;2024-02-26T04:37:00;5.80;;;2.67;;
49592;SDS011;35499;51.482;4.264;2024-02-26T04:39:26;4.78;;;3.25;;
49592;SDS011;35499;51.482;4.264;2024-02-26T04:41:51;4.77;;;1.97;;
49592;SDS011;35499;51.482;4.264;2024-02-26T04:44:16;4.85;;;2.40;;
49592;SDS011;35499;51.482;4.264;2024-02-26T04:46:42;5.50;;;3.17;;
49592;SDS011;35499;51.482;4.264;2024-02-26T04:49:07;4.75;;;2.22;;
49592;SDS011;35499;51.482;4.264;2024-02-26T04:51:33;6.50;;;2.87;;
49592;SDS011;35499;51.482;4.264;2024-02-26T04:53:58;6.07;;;3.17;;
49592;SDS011;35499;51.482;4.264;2024-02-26T04:56:24;7.45;;;3.22;;
49592;SDS011;35499;51.482;4.264;2024-02-26T04:58:50;4.57;;;2.45;;
49592;SDS011;35499;51.482;4.264;2024-02-26T05:01:15;5.57;;;3.77;;
49592;SDS011;35499;51.482;4.264;2024-02-26T05:03:42;7.85;;;3.75;;
49592;SDS011;35499;51.482;4.264;2024-02-26T05:06:07;7.57;;;3.25;;
49592;SDS011;35499;51.482;4.264;2024-02-26T05:08:34;6.53;;;2.95;;
49592;SDS011;35499;51.482;4.264;2024-02-26T05:11:01;6.18;;;3.25;;
49592;SDS011;35499;51.482;4.264;2024-02-26T05:13:27;5.03;;;2.38;;
49592;SDS011;35499;51.482;4.264;2024-02-26T05:15:53;5.53;;;3.13;;
49592;SDS011;35499;51.482;4.264;2024-02-26T05:18:18;6.13;;;2.80;;
49592;SDS011;35499;51.482;4.264;2024-02-26T05:20:44;6.03;;;3.08;;
49592;SDS011;35499;51.482;4.264;2024-02-26T05:23:09;6.43;;;3.07;;
49592;SDS011;35499;51.482;4.264;2024-02-26T05:25:34;7.17;;;3.47;;
49592;SDS011;35499;51.482;4.264;2024-02-26T05:28:00;7.40;;;3.40;;
49592;SDS011;35499;51.482;4.264;2024-02-26T05:30:26;8.48;;;3.65;;
49592;SDS011;35499;51.482;4.264;2024-02-26T05:32:53;7.88;;;3.28;;
49592;SDS011;35499;51.482;4.264;2024-02-26T05:35:18;5.10;;;3.13;;
49592;SDS011;35499;51.482;4.264;2024-02-26T05:37:44;5.85;;;3.25;;
49592;SDS011;35499;51.482;4.264;2024-02-26T05:40:09;6.35;;;3.22;;
49592;SDS011;35499;51.482;4.264;2024-02-26T05:42:36;6.05;;;3.40;;
49592;SDS011;35499;51.482;4.264;2024-02-26T05:45:01;7.60;;;3.60;;
49592;SDS011;35499;51.482;4.264;2024-02-26T05:47:32;4.85;;;2.70;;
49592;SDS011;35499;51.482;4.264;2024-02-26T05:52:25;6.10;;;3.15;;
49592;SDS011;35499;51.482;4.264;2024-02-26T05:54:51;6.55;;;3.05;;
49592;SDS011;35499;51.482;4.264;2024-02-26T05:57:16;3.33;;;1.67;;
49592;SDS011;35499;51.482;4.264;2024-02-26T05:59:43;4.75;;;2.63;;
49592;SDS011;35499;51.482;4.264;2024-02-26T06:02:09;3.55;;;2.00;;
49592;SDS011;35499;51.482;4.264;2024-02-26T06:04:34;4.73;;;2.63;;
49592;SDS011;35499;51.482;4.264;2024-02-26T06:06:59;4.68;;;2.42;;
49592;SDS011;35499;51.482;4.264;2024-02-26T06:09:25;4.10;;;2.53;;
49592;SDS011;35499;51.482;4.264;2024-02-26T06:11:50;5.10;;;1.95;;
49592;SDS011;35499;51.482;4.264;2024-02-26T06:14:15;5.63;;;3.03;;
49592;SDS011;35499;51.482;4.264;2024-02-26T06:16:43;6.00;;;3.20;;
49592;SDS011;35499;51.482;4.264;2024-02-26T06:19:09;7.25;;;3.53;;
49592;SDS011;35499;51.482;4.264;2024-02-26T06:21:34;4.53;;;2.13;;
49592;SDS011;35499;51.482;4.264;2024-02-26T06:24:00;4.78;;;3.03;;
49592;SDS011;35499;51.482;4.264;2024-02-26T06:26:25;6.38;;;2.85;;
49592;SDS011;35499;51.482;4.264;2024-02-26T06:28:53;5.80;;;2.92;;
49592;SDS011;35499;51.482;4.264;2024-02-26T06:31:19;4.88;;;2.50;;
49592;SDS011;35499;51.482;4.264;2024-02-26T06:33:47;4.25;;;1.77;;
49592;SDS011;35499;51.482;4.264;2024-02-26T06:36:12;6.50;;;1.90;;
49592;SDS011;35499;51.482;4.264;2024-02-26T06:38:38;4.03;;;2.13;;
49592;SDS011;35499;51.482;4.264;2024-02-26T06:41:03;6.15;;;3.03;;
49592;SDS011;35499;51.482;4.264;2024-02-26T06:43:29;4.55;;;2.50;;
49592;SDS011;35499;51.482;4.264;2024-02-26T06:45:54;3.95;;;2.13;;
49592;SDS011;35499;51.482;4.264;2024-02-26T06:48:19;4.90;;;2.27;;
49592;SDS011;35499;51.482;4.264;2024-02-26T06:50:45;6.13;;;3.17;;
49592;SDS011;35499;51.482;4.264;2024-02-26T06:53:10;3.70;;;1.83;;
49592;SDS011;35499;51.482;4.264;2024-02-26T06:55:35;5.40;;;2.03;;
49592;SDS011;35499;51.482;4.264;2024-02-26T06:58:02;4.30;;;2.97;;
49592;SDS011;35499;51.482;4.264;2024-02-26T07:00:27;5.25;;;2.78;;
49592;SDS011;35499;51.482;4.264;2024-02-26T07:02:53;4.50;;;2.23;;
49592;SDS011;35499;51.482;4.264;2024-02-26T07:05:18;5.68;;;2.75;;
49592;SDS011;35499;51.482;4.264;2024-02-26T07:07:44;5.95;;;3.88;;
49592;SDS011;35499;51.482;4.264;2024-02-26T07:10:09;6.43;;;2.60;;
49592;SDS011;35499;51.482;4.264;2024-02-26T07:12:37;4.05;;;2.30;;
49592;SDS011;35499;51.482;4.264;2024-02-26T07:15:03;6.50;;;3.13;;
49592;SDS011;35499;51.482;4.264;2024-02-26T07:17:30;5.25;;;2.90;;
49592;SDS011;35499;51.482;4.264;2024-02-26T07:19:55;3.30;;;1.80;;
49592;SDS011;35499;51.482;4.264;2024-02-26T07:22:21;5.97;;;2.90;;
49592;SDS011;35499;51.482;4.264;2024-02-26T07:24:46;6.90;;;2.90;;
49592;SDS011;35499;51.482;4.264;2024-02-26T07:27:11;4.07;;;2.30;;
49592;SDS011;35499;51.482;4.264;2024-02-26T07:29:37;5.55;;;2.53;;
49592;SDS011;35499;51.482;4.264;2024-02-26T07:32:02;3.75;;;2.17;;
49592;SDS011;35499;51.482;4.264;2024-02-26T07:34:28;4.28;;;2.53;;
49592;SDS011;35499;51.482;4.264;2024-02-26T07:36:56;3.33;;;2.17;;
49592;SDS011;35499;51.482;4.264;2024-02-26T07:39:22;5.10;;;2.30;;
49592;SDS011;35499;51.482;4.264;2024-02-26T07:41:47;8.70;;;3.03;;
49592;SDS011;35499;51.482;4.264;2024-02-26T07:44:15;9.85;;;3.00;;
49592;SDS011;35499;51.482;4.264;2024-02-26T07:46:40;5.72;;;2.75;;
49592;SDS011;35499;51.482;4.264;2024-02-26T07:49:05;3.97;;;2.03;;
49592;SDS011;35499;51.482;4.264;2024-02-26T07:51:31;5.50;;;3.07;;
49592;SDS011;35499;51.482;4.264;2024-02-26T07:53:56;5.57;;;2.33;;
49592;SDS011;35499;51.482;4.264;2024-02-26T07:56:22;5.20;;;2.78;;
49592;SDS011;35499;51.482;4.264;2024-02-26T07:58:47;4.93;;;2.78;;
49592;SDS011;35499;51.482;4.264;2024-02-26T08:01:13;4.17;;;2.30;;
49592;SDS011;35499;51.482;4.264;2024-02-26T08:03:39;5.47;;;2.83;;
49592;SDS011;35499;51.482;4.264;2024-02-26T08:06:05;4.78;;;2.70;;
49592;SDS011;35499;51.482;4.264;2024-02-26T08:08:30;7.00;;;3.85;;
49592;SDS011;35499;51.482;4.264;2024-02-26T08:10:56;7.05;;;3.35;;
49592;SDS011;35499;51.482;4.264;2024-02-26T08:13:21;7.60;;;3.80;;
49592;SDS011;35499;51.482;4.264;2024-02-26T08:15:47;8.50;;;2.60;;
49592;SDS011;35499;51.482;4.264;2024-02-26T08:18:12;5.87;;;3.13;;
49592;SDS011;35499;51.482;4.264;2024-02-26T08:20:37;4.90;;;2.72;;
49592;SDS011;35499;51.482;4.264;2024-02-26T08:23:03;6.30;;;2.90;;
49592;SDS011;35499;51.482;4.264;2024-02-26T08:25:29;6.63;;;3.45;;
49592;SDS011;35499;51.482;4.264;2024-02-26T08:27:54;7.22;;;3.47;;
49592;SDS011;35499;51.482;4.264;2024-02-26T08:30:20;9.93;;;3.97;;
49592;SDS011;35499;51.482;4.264;2024-02-26T08:32:45;8.32;;;4.10;;
49592;SDS011;35499;51.482;4.264;2024-02-26T08:37:38;6.10;;;3.30;;
49592;SDS011;35499;51.482;4.264;2024-02-26T08:40:03;4.63;;;2.60;;
49592;SDS011;35499;51.482;4.264;2024-02-26T08:42:30;6.97;;;3.85;;
49592;SDS011;35499;51.482;4.264;2024-02-26T08:44:55;7.45;;;3.58;;
49592;SDS011;35499;51.482;4.264;2024-02-26T08:47:20;10.53;;;4.87;;
49592;SDS011;35499;51.482;4.264;2024-02-26T08:49:46;10.27;;;5.17;;
49592;SDS011;35499;51.482;4.264;2024-02-26T08:52:11;9.60;;;4.40;;
49592;SDS011;35499;51.482;4.264;2024-02-26T08:54:37;10.98;;;4.53;;
49592;SDS011;35499;51.482;4.264;2024-02-26T08:57:02;8.88;;;3.67;;
49592;SDS011;35499;51.482;4.264;2024-02-26T08:59:28;11.93;;;5.10;;
49592;SDS011;35499;51.482;4.264;2024-02-26T09:01:53;10.57;;;4.93;;
49592;SDS011;35499;51.482;4.264;2024-02-26T09:04:19;11.10;;;5.28;;
49592;SDS011;35499;51.482;4.264;2024-02-26T09:06:44;8.43;;;3.92;;
49592;SDS011;35499;51.482;4.264;2024-02-26T09:09:10;11.23;;;5.35;;
49592;SDS011;35499;51.482;4.264;2024-02-26T09:11:36;11.95;;;4.70;;
49592;SDS011;35499;51.482;4.264;2024-02-26T09:14:01;15.02;;;6.22;;
49592;SDS011;35499;51.482;4.264;2024-02-26T09:16:28;12.40;;;5.43;;
49592;SDS011;35499;51.482;4.264;2024-02-26T09:18:54;15.73;;;6.00;;
49592;SDS011;35499;51.482;4.264;2024-02-26T09:21:19;14.73;;;6.30;;
49592;SDS011;35499;51.482;4.264;2024-02-26T09:23:48;18.05;;;7.22;;
49592;SDS011;35499;51.482;4.264;2024-02-26T09:26:17;14.65;;;4.90;;
49592;SDS011;35499;51.482;4.264;2024-02-26T09:28:43;18.65;;;7.25;;
49592;SDS011;35499;51.482;4.264;2024-02-26T09:31:08;15.13;;;5.63;;
49592;SDS011;35499;51.482;4.264;2024-02-26T09:33:34;11.98;;;6.05;;
49592;SDS011;35499;51.482;4.264;2024-02-26T09:35:59;17.83;;;5.78;;
49592;SDS011;35499;51.482;4.264;2024-02-26T09:38:28;15.50;;;6.57;;
49592;SDS011;35499;51.482;4.264;2024-02-26T09:40:55;11.15;;;5.55;;
49592;SDS011;35499;51.482;4.264;2024-02-26T09:43:24;15.90;;;6.80;;
49592;SDS011;35499;51.482;4.264;2024-02-26T09:45:54;16.90;;;6.78;;
49592;SDS011;35499;51.482;4.264;2024-02-26T09:48:19;12.60;;;5.43;;
49592;SDS011;35499;51.482;4.264;2024-02-26T09:50:45;22.45;;;7.82;;
49592;SDS011;35499;51.482;4.264;2024-02-26T09:53:12;15.25;;;7.45;;
49592;SDS011;35499;51.482;4.264;2024-02-26T09:55:39;22.25;;;8.10;;
49592;SDS011;35499;51.482;4.264;2024-02-26T09:58:05;20.83;;;8.38;;
49592;SDS011;35499;51.482;4.264;2024-02-26T10:04:33;17.52;;;7.53;;
49592;SDS011;35499;51.482;4.264;2024-02-26T10:06:59;17.30;;;7.80;;
49592;SDS011;35499;51.482;4.264;2024-02-26T10:11:51;14.25;;;5.38;;
49592;SDS011;35499;51.482;4.264;2024-02-26T10:14:17;23.60;;;8.40;;
49592;SDS011;35499;51.482;4.264;2024-02-26T10:16:42;20.83;;;8.65;;
49592;SDS011;35499;51.482;4.264;2024-02-26T10:19:08;19.33;;;7.75;;
49592;SDS011;35499;51.482;4.264;2024-02-26T10:21:34;11.63;;;5.78;;
49592;SDS011;35499;51.482;4.264;2024-02-26T10:24:01;16.23;;;7.25;;
49592;SDS011;35499;51.482;4.264;2024-02-26T10:26:26;14.40;;;6.35;;
49592;SDS011;35499;51.482;4.264;2024-02-26T10:28:52;11.73;;;5.80;;
49592;SDS011;35499;51.482;4.264;2024-02-26T10:31:20;15.82;;;6.45;;
49592;SDS011;35499;51.482;4.264;2024-02-26T10:33:48;16.52;;;6.93;;
49592;SDS011;35499;51.482;4.264;2024-02-26T10:39:51;11.30;;;5.43;;
49592;SDS011;35499;51.482;4.264;2024-02-26T10:42:16;14.07;;;6.80;;
49592;SDS011;35499;51.482;4.264;2024-02-26T10:44:45;14.38;;;6.72;;
49592;SDS011;35499;51.482;4.264;2024-02-26T10:47:10;11.88;;;6.13;;
49592;SDS011;35499;51.482;4.264;2024-02-26T10:49:36;10.77;;;6.07;;
49592;SDS011;35499;51.482;4.264;2024-02-26T10:52:02;6.75;;;3.35;;
49592;SDS011;35499;51.482;4.264;2024-02-26T10:54:29;13.77;;;7.03;;
49592;SDS011;35499;51.482;4.264;2024-02-26T10:56:56;13.05;;;6.47;;
49592;SDS011;35499;51.482;4.264;2024-02-26T10:59:23;14.40;;;6.00;;
49592;SDS011;35499;51.482;4.264;2024-02-26T11:01:49;8.88;;;4.45;;
49592;SDS011;35499;51.482;4.264;2024-02-26T11:04:15;10.60;;;5.72;;
49592;SDS011;35499;51.482;4.264;2024-02-26T11:06:42;7.40;;;3.25;;
49592;SDS011;35499;51.482;4.264;2024-02-26T11:09:08;10.48;;;5.20;;
49592;SDS011;35499;51.482;4.264;2024-02-26T11:11:38;9.65;;;4.95;;
49592;SDS011;35499;51.482;4.264;2024-02-26T11:16:31;10.32;;;5.25;;
49592;SDS011;35499;51.482;4.264;2024-02-26T11:19:00;10.05;;;4.68;;
49592;SDS011;35499;51.482;4.264;2024-02-26T11:21:27;7.65;;;3.55;;
49592;SDS011;35499;51.482;4.264;2024-02-26T11:24:03;10.23;;;4.03;;
49592;SDS011;35499;51.482;4.264;2024-02-26T11:26:30;9.23;;;4.45;;
49592;SDS011;35499;51.482;4.264;2024-02-26T11:28:56;8.63;;;3.97;;
49592;SDS011;35499;51.482;4.264;2024-02-26T11:31:24;8.18;;;3.17;;
49592;SDS011;35499;51.482;4.264;2024-02-26T11:33:53;13.73;;;5.25;;
49592;SDS011;35499;51.482;4.264;2024-02-26T11:36:19;8.63;;;4.43;;
49592;SDS011;35499;51.482;4.264;2024-02-26T11:38:46;9.02;;;3.80;;
49592;SDS011;35499;51.482;4.264;2024-02-26T11:41:14;7.57;;;3.70;;
49592;SDS011;35499;51.482;4.264;2024-02-26T11:44:00;6.30;;;1.67;;
49592;SDS011;35499;51.482;4.264;2024-02-26T11:46:27;8.75;;;3.90;;
49592;SDS011;35499;51.482;4.264;2024-02-26T11:48:55;7.50;;;3.75;;
49592;SDS011;35499;51.482;4.264;2024-02-26T11:51:41;8.77;;;4.00;;
49592;SDS011;35499;51.482;4.264;2024-02-26T11:54:07;5.03;;;2.20;;
49592;SDS011;35499;51.482;4.264;2024-02-26T11:56:33;9.02;;;4.50;;
49592;SDS011;35499;51.482;4.264;2024-02-26T11:59:00;4.13;;;2.42;;
49592;SDS011;35499;51.482;4.264;2024-02-26T12:01:47;5.72;;;3.03;;
49592;SDS011;35499;51.482;4.264;2024-02-26T12:06:45;7.97;;;3.40;;
49592;SDS011;35499;51.482;4.264;2024-02-26T12:09:12;4.65;;;2.28;;
49592;SDS011;35499;51.482;4.264;2024-02-26T12:11:38;6.70;;;3.50;;
49592;SDS011;35499;51.482;4.264;2024-02-26T12:14:08;5.25;;;2.65;;
49592;SDS011;35499;51.482;4.264;2024-02-26T12:16:38;10.65;;;5.07;;
49592;SDS011;35499;51.482;4.264;2024-02-26T12:19:05;6.20;;;2.50;;
49592;SDS011;35499;51.482;4.264;2024-02-26T12:21:35;5.47;;;2.72;;
49592;SDS011;35499;51.482;4.264;2024-02-26T12:24:12;5.90;;;2.53;;
49592;SDS011;35499;51.482;4.264;2024-02-26T12:26:39;8.57;;;3.80;;
49592;SDS011;35499;51.482;4.264;2024-02-26T12:29:04;6.75;;;4.43;;
49592;SDS011;35499;51.482;4.264;2024-02-26T12:31:30;6.32;;;2.88;;
49592;SDS011;35499;51.482;4.264;2024-02-26T12:33:57;9.88;;;4.20;;
49592;SDS011;35499;51.482;4.264;2024-02-26T12:36:23;7.88;;;3.33;;
49592;SDS011;35499;51.482;4.264;2024-02-26T12:38:50;8.57;;;3.10;;
49592;SDS011;35499;51.482;4.264;2024-02-26T12:41:16;8.77;;;3.63;;
49592;SDS011;35499;51.482;4.264;2024-02-26T12:43:42;8.52;;;3.60;;
49592;SDS011;35499;51.482;4.264;2024-02-26T12:46:07;4.43;;;2.40;;
49592;SDS011;35499;51.482;4.264;2024-02-26T12:48:33;6.53;;;3.30;;
49592;SDS011;35499;51.482;4.264;2024-02-26T12:50:58;4.70;;;2.10;;
49592;SDS011;35499;51.482;4.264;2024-02-26T12:53:24;7.95;;;3.80;;
49592;SDS011;35499;51.482;4.264;2024-02-26T12:55:50;6.68;;;4.20;;
49592;SDS011;35499;51.482;4.264;2024-02-26T12:58:16;6.80;;;2.85;;
49592;SDS011;35499;51.482;4.264;2024-02-26T13:00:42;5.82;;;2.60;;
49592;SDS011;35499;51.482;4.264;2024-02-26T13:03:08;7.22;;;3.15;;
49592;SDS011;35499;51.482;4.264;2024-02-26T13:05:34;5.00;;;2.05;;
49592;SDS011;35499;51.482;4.264;2024-02-26T13:08:00;6.28;;;3.08;;
49592;SDS011;35499;51.482;4.264;2024-02-26T13:10:26;7.60;;;3.40;;
49592;SDS011;35499;51.482;4.264;2024-02-26T13:12:52;6.72;;;3.25;;
49592;SDS011;35499;51.482;4.264;2024-02-26T13:15:19;9.15;;;3.17;;
49592;SDS011;35499;51.482;4.264;2024-02-26T13:17:46;6.20;;;2.80;;
49592;SDS011;35499;51.482;4.264;2024-02-26T13:20:12;8.32;;;3.53;;
49592;SDS011;35499;51.482;4.264;2024-02-26T13:22:39;6.65;;;3.45;;
49592;SDS011;35499;51.482;4.264;2024-02-26T13:25:05;8.60;;;2.97;;
49592;SDS011;35499;51.482;4.264;2024-02-26T13:27:33;6.38;;;3.38;;
49592;SDS011;35499;51.482;4.264;2024-02-26T13:30:08;9.48;;;3.72;;
49592;SDS011;35499;51.482;4.264;2024-02-26T13:32:35;6.13;;;2.80;;
49592;SDS011;35499;51.482;4.264;2024-02-26T13:35:05;6.15;;;2.78;;
49592;SDS011;35499;51.482;4.264;2024-02-26T13:37:31;7.32;;;2.83;;
49592;SDS011;35499;51.482;4.264;2024-02-26T13:39:56;9.63;;;4.17;;
49592;SDS011;35499;51.482;4.264;2024-02-26T13:42:22;7.33;;;4.13;;
49592;SDS011;35499;51.482;4.264;2024-02-26T13:44:47;7.13;;;4.22;;
49592;SDS011;35499;51.482;4.264;2024-02-26T13:47:12;6.60;;;3.67;;
49592;SDS011;35499;51.482;4.264;2024-02-26T13:49:38;9.77;;;4.20;;
49592;SDS011;35499;51.482;4.264;2024-02-26T13:52:04;8.05;;;5.07;;
49592;SDS011;35499;51.482;4.264;2024-02-26T13:54:29;7.65;;;4.22;;
49592;SDS011;35499;51.482;4.264;2024-02-26T13:56:55;9.05;;;3.38;;
49592;SDS011;35499;51.482;4.264;2024-02-26T13:59:20;7.23;;;3.73;;
49592;SDS011;35499;51.482;4.264;2024-02-26T14:01:45;9.60;;;3.67;;
49592;SDS011;35499;51.482;4.264;2024-02-26T14:04:11;10.90;;;4.20;;
49592;SDS011;35499;51.482;4.264;2024-02-26T14:06:36;9.80;;;5.23;;
49592;SDS011;35499;51.482;4.264;2024-02-26T14:09:02;9.30;;;4.72;;
49592;SDS011;35499;51.482;4.264;2024-02-26T14:11:29;8.63;;;4.40;;
49592;SDS011;35499;51.482;4.264;2024-02-26T14:13:54;7.78;;;3.90;;
49592;SDS011;35499;51.482;4.264;2024-02-26T14:16:19;11.15;;;4.80;;
49592;SDS011;35499;51.482;4.264;2024-02-26T14:18:45;6.05;;;2.97;;
49592;SDS011;35499;51.482;4.264;2024-02-26T14:21:11;6.25;;;3.13;;
49592;SDS011;35499;51.482;4.264;2024-02-26T14:23:37;8.35;;;3.45;;
49592;SDS011;35499;51.482;4.264;2024-02-26T14:26:02;7.68;;;4.85;;
49592;SDS011;35499;51.482;4.264;2024-02-26T14:28:28;8.38;;;4.70;;
49592;SDS011;35499;51.482;4.264;2024-02-26T14:30:54;8.18;;;4.85;;
49592;SDS011;35499;51.482;4.264;2024-02-26T14:33:20;7.65;;;4.50;;
49592;SDS011;35499;51.482;4.264;2024-02-26T14:35:45;7.80;;;3.13;;
49592;SDS011;35499;51.482;4.264;2024-02-26T14:38:10;8.63;;;4.23;;
49592;SDS011;35499;51.482;4.264;2024-02-26T14:40:36;6.85;;;3.50;;
49592;SDS011;35499;51.482;4.264;2024-02-26T14:43:02;8.80;;;4.75;;
49592;SDS011;35499;51.482;4.264;2024-02-26T14:45:29;8.77;;;3.90;;
49592;SDS011;35499;51.482;4.264;2024-02-26T14:47:54;8.52;;;4.38;;
49592;SDS011;35499;51.482;4.264;2024-02-26T14:50:20;6.43;;;3.77;;
49592;SDS011;35499;51.482;4.264;2024-02-26T14:52:45;5.90;;;3.43;;
49592;SDS011;35499;51.482;4.264;2024-02-26T14:55:10;5.97;;;3.30;;
49592;SDS011;35499;51.482;4.264;2024-02-26T14:57:36;7.80;;;3.33;;
49592;SDS011;35499;51.482;4.264;2024-02-26T15:00:01;7.90;;;3.93;;